sensor_id;sensor_type;location;lat;lon;timestamp;P1;durP1;ratioP1;P2;durP2;ratioP2
68843;SDS011;55850;51.244;6.824;2022-09-03T00:02:27;1.92;;;1.08;;
68843;SDS011;55850;51.244;6.824;2022-09-03T00:07:41;1.37;;;1.20;;
68843;SDS011;55850;51.244;6.824;2022-09-03T00:12:55;1.73;;;1.00;;
68843;SDS011;55850;51.244;6.824;2022-09-03T00:18:04;1.63;;;1.00;;
68843;SDS011;55850;51.244;6.824;2022-09-03T00:23:13;1.35;;;1.08;;
68843;SDS011;55850;51.244;6.824;2022-09-03T00:28:27;1.97;;;1.10;;
68843;SDS011;55850;51.244;6.824;2022-09-03T00:33:41;1.00;;;0.90;;
68843;SDS011;55850;51.244;6.824;2022-09-03T00:38:50;1.10;;;0.90;;
68843;SDS011;55850;51.244;6.824;2022-09-03T00:44:01;1.30;;;1.10;;
68843;SDS011;55850;51.244;6.824;2022-09-03T00:49:22;1.50;;;0.80;;
68843;SDS011;55850;51.244;6.824;2022-09-03T00:54:36;2.10;;;1.10;;
68843;SDS011;55850;51.244;6.824;2022-09-03T00:59:52;2.40;;;1.00;;
68843;SDS011;55850;51.244;6.824;2022-09-03T01:05:07;1.93;;;0.93;;
68843;SDS011;55850;51.244;6.824;2022-09-03T01:10:19;2.78;;;1.20;;
68843;SDS011;55850;51.244;6.824;2022-09-03T01:15:40;1.88;;;1.00;;
68843;SDS011;55850;51.244;6.824;2022-09-03T01:20:57;1.40;;;1.00;;
68843;SDS011;55850;51.244;6.824;2022-09-03T01:26:27;2.55;;;1.00;;
68843;SDS011;55850;51.244;6.824;2022-09-03T01:31:44;1.67;;;1.05;;
68843;SDS011;55850;51.244;6.824;2022-09-03T01:36:55;1.00;;;0.90;;
68843;SDS011;55850;51.244;6.824;2022-09-03T01:42:14;1.75;;;1.20;;
68843;SDS011;55850;51.244;6.824;2022-09-03T01:47:32;3.55;;;1.00;;
68843;SDS011;55850;51.244;6.824;2022-09-03T01:52:53;1.00;;;0.80;;
68843;SDS011;55850;51.244;6.824;2022-09-03T01:58:04;1.80;;;1.00;;
68843;SDS011;55850;51.244;6.824;2022-09-03T02:03:18;2.20;;;1.00;;
68843;SDS011;55850;51.244;6.824;2022-09-03T02:08:24;1.85;;;1.02;;
68843;SDS011;55850;51.244;6.824;2022-09-03T02:13:31;4.17;;;1.10;;
68843;SDS011;55850;51.244;6.824;2022-09-03T02:18:43;1.60;;;1.00;;
68843;SDS011;55850;51.244;6.824;2022-09-03T02:23:52;2.17;;;1.10;;
68843;SDS011;55850;51.244;6.824;2022-09-03T02:28:58;2.53;;;1.10;;
68843;SDS011;55850;51.244;6.824;2022-09-03T02:34:09;1.65;;;1.10;;
68843;SDS011;55850;51.244;6.824;2022-09-03T02:39:15;2.78;;;1.10;;
68843;SDS011;55850;51.244;6.824;2022-09-03T02:44:22;0.93;;;0.80;;
68843;SDS011;55850;51.244;6.824;2022-09-03T02:49:36;1.77;;;1.10;;
68843;SDS011;55850;51.244;6.824;2022-09-03T02:54:41;1.77;;;1.00;;
68843;SDS011;55850;51.244;6.824;2022-09-03T02:59:47;3.88;;;0.95;;
68843;SDS011;55850;51.244;6.824;2022-09-03T03:04:55;1.60;;;1.00;;
68843;SDS011;55850;51.244;6.824;2022-09-03T03:10:00;2.17;;;1.00;;
68843;SDS011;55850;51.244;6.824;2022-09-03T03:15:06;2.33;;;1.17;;
68843;SDS011;55850;51.244;6.824;2022-09-03T03:20:15;1.30;;;1.00;;
68843;SDS011;55850;51.244;6.824;2022-09-03T03:25:20;1.65;;;1.00;;
68843;SDS011;55850;51.244;6.824;2022-09-03T03:30:26;1.38;;;0.90;;
68843;SDS011;55850;51.244;6.824;2022-09-03T03:35:35;2.73;;;1.07;;
68843;SDS011;55850;51.244;6.824;2022-09-03T03:40:42;1.20;;;0.90;;
68843;SDS011;55850;51.244;6.824;2022-09-03T03:45:54;1.10;;;0.80;;
68843;SDS011;55850;51.244;6.824;2022-09-03T03:51:04;1.05;;;0.75;;
68843;SDS011;55850;51.244;6.824;2022-09-03T03:56:12;3.47;;;1.20;;
68843;SDS011;55850;51.244;6.824;2022-09-03T04:01:19;8.32;;;1.10;;
68843;SDS011;55850;51.244;6.824;2022-09-03T04:06:29;2.75;;;0.98;;
68843;SDS011;55850;51.244;6.824;2022-09-03T04:11:38;2.17;;;1.00;;
68843;SDS011;55850;51.244;6.824;2022-09-03T04:16:44;1.25;;;0.85;;
68843;SDS011;55850;51.244;6.824;2022-09-03T04:21:52;1.25;;;0.90;;
68843;SDS011;55850;51.244;6.824;2022-09-03T04:26:58;1.90;;;1.10;;
68843;SDS011;55850;51.244;6.824;2022-09-03T04:32:04;3.10;;;1.13;;
68843;SDS011;55850;51.244;6.824;2022-09-03T04:37:25;1.63;;;0.82;;
68843;SDS011;55850;51.244;6.824;2022-09-03T04:42:30;3.30;;;1.15;;
68843;SDS011;55850;51.244;6.824;2022-09-03T04:47:36;2.07;;;1.10;;
68843;SDS011;55850;51.244;6.824;2022-09-03T04:52:44;1.92;;;1.10;;
68843;SDS011;55850;51.244;6.824;2022-09-03T04:57:50;1.90;;;1.10;;
68843;SDS011;55850;51.244;6.824;2022-09-03T05:02:58;2.73;;;1.07;;
68843;SDS011;55850;51.244;6.824;2022-09-03T05:08:08;1.52;;;1.00;;
68843;SDS011;55850;51.244;6.824;2022-09-03T05:13:14;1.08;;;0.95;;
68843;SDS011;55850;51.244;6.824;2022-09-03T05:18:20;1.73;;;1.07;;
68843;SDS011;55850;51.244;6.824;2022-09-03T05:23:28;1.40;;;1.07;;
68843;SDS011;55850;51.244;6.824;2022-09-03T05:28:39;1.65;;;1.00;;
68843;SDS011;55850;51.244;6.824;2022-09-03T05:33:46;3.78;;;0.93;;
68843;SDS011;55850;51.244;6.824;2022-09-03T05:38:56;1.17;;;1.07;;
68843;SDS011;55850;51.244;6.824;2022-09-03T05:44:02;2.35;;;1.02;;
68843;SDS011;55850;51.244;6.824;2022-09-03T05:49:08;1.92;;;0.90;;
68843;SDS011;55850;51.244;6.824;2022-09-03T05:54:17;1.30;;;1.00;;
68843;SDS011;55850;51.244;6.824;2022-09-03T05:59:23;1.48;;;1.00;;
68843;SDS011;55850;51.244;6.824;2022-09-03T06:04:29;1.58;;;1.00;;
68843;SDS011;55850;51.244;6.824;2022-09-03T06:09:37;4.23;;;1.20;;
68843;SDS011;55850;51.244;6.824;2022-09-03T06:14:43;1.60;;;1.20;;
68843;SDS011;55850;51.244;6.824;2022-09-03T06:19:48;1.92;;;0.90;;
68843;SDS011;55850;51.244;6.824;2022-09-03T06:24:57;1.33;;;1.10;;
68843;SDS011;55850;51.244;6.824;2022-09-03T06:30:03;3.40;;;1.00;;
68843;SDS011;55850;51.244;6.824;2022-09-03T06:35:09;1.33;;;1.00;;
68843;SDS011;55850;51.244;6.824;2022-09-03T06:40:17;1.50;;;0.90;;
68843;SDS011;55850;51.244;6.824;2022-09-03T06:45:24;4.60;;;1.20;;
68843;SDS011;55850;51.244;6.824;2022-09-03T06:50:30;1.67;;;1.00;;
68843;SDS011;55850;51.244;6.824;2022-09-03T06:55:39;1.70;;;1.13;;
68843;SDS011;55850;51.244;6.824;2022-09-03T07:00:48;1.40;;;1.00;;
68843;SDS011;55850;51.244;6.824;2022-09-03T07:05:59;1.70;;;1.00;;
68843;SDS011;55850;51.244;6.824;2022-09-03T07:11:09;1.20;;;1.10;;
68843;SDS011;55850;51.244;6.824;2022-09-03T07:16:17;1.38;;;1.10;;
68843;SDS011;55850;51.244;6.824;2022-09-03T07:21:24;1.37;;;1.00;;
68843;SDS011;55850;51.244;6.824;2022-09-03T07:26:34;2.58;;;0.93;;
68843;SDS011;55850;51.244;6.824;2022-09-03T07:31:41;1.70;;;0.88;;
68843;SDS011;55850;51.244;6.824;2022-09-03T07:36:48;2.93;;;1.40;;
68843;SDS011;55850;51.244;6.824;2022-09-03T07:41:57;2.47;;;1.00;;
68843;SDS011;55850;51.244;6.824;2022-09-03T07:47:03;2.03;;;1.17;;
68843;SDS011;55850;51.244;6.824;2022-09-03T07:52:09;2.47;;;1.17;;
68843;SDS011;55850;51.244;6.824;2022-09-03T07:57:21;1.97;;;1.10;;
68843;SDS011;55850;51.244;6.824;2022-09-03T08:02:27;2.22;;;1.13;;
68843;SDS011;55850;51.244;6.824;2022-09-03T08:07:33;1.60;;;1.05;;
68843;SDS011;55850;51.244;6.824;2022-09-03T08:12:42;1.63;;;1.17;;
68843;SDS011;55850;51.244;6.824;2022-09-03T08:17:48;2.47;;;1.38;;
68843;SDS011;55850;51.244;6.824;2022-09-03T08:22:59;4.07;;;1.15;;
68843;SDS011;55850;51.244;6.824;2022-09-03T08:28:07;2.73;;;1.30;;
68843;SDS011;55850;51.244;6.824;2022-09-03T08:33:13;2.10;;;1.30;;
68843;SDS011;55850;51.244;6.824;2022-09-03T08:38:38;1.30;;;1.20;;
68843;SDS011;55850;51.244;6.824;2022-09-03T08:43:52;2.23;;;1.10;;
68843;SDS011;55850;51.244;6.824;2022-09-03T08:49:11;2.00;;;1.40;;
68843;SDS011;55850;51.244;6.824;2022-09-03T08:54:24;1.65;;;1.15;;
68843;SDS011;55850;51.244;6.824;2022-09-03T08:59:36;1.77;;;1.52;;
68843;SDS011;55850;51.244;6.824;2022-09-03T09:04:46;2.00;;;1.13;;
68843;SDS011;55850;51.244;6.824;2022-09-03T09:10:00;3.35;;;1.20;;
68843;SDS011;55850;51.244;6.824;2022-09-03T09:15:22;8.63;;;2.10;;
68843;SDS011;55850;51.244;6.824;2022-09-03T09:20:38;5.37;;;1.20;;
68843;SDS011;55850;51.244;6.824;2022-09-03T09:25:49;3.58;;;1.48;;
68843;SDS011;55850;51.244;6.824;2022-09-03T09:30:58;2.08;;;1.42;;
68843;SDS011;55850;51.244;6.824;2022-09-03T09:36:09;1.30;;;1.10;;
68843;SDS011;55850;51.244;6.824;2022-09-03T09:41:17;2.03;;;1.10;;
68843;SDS011;55850;51.244;6.824;2022-09-03T09:46:34;2.63;;;1.35;;
68843;SDS011;55850;51.244;6.824;2022-09-03T09:51:42;4.40;;;1.35;;
68843;SDS011;55850;51.244;6.824;2022-09-03T09:56:57;1.60;;;1.50;;
68843;SDS011;55850;51.244;6.824;2022-09-03T10:02:09;1.92;;;1.35;;
68843;SDS011;55850;51.244;6.824;2022-09-03T10:07:24;2.50;;;1.58;;
68843;SDS011;55850;51.244;6.824;2022-09-03T10:12:34;3.97;;;1.70;;
68843;SDS011;55850;51.244;6.824;2022-09-03T10:17:50;2.35;;;1.80;;
68843;SDS011;55850;51.244;6.824;2022-09-03T10:23:06;6.80;;;1.70;;
68843;SDS011;55850;51.244;6.824;2022-09-03T10:28:16;3.00;;;1.70;;
68843;SDS011;55850;51.244;6.824;2022-09-03T10:33:26;1.70;;;1.60;;
68843;SDS011;55850;51.244;6.824;2022-09-03T10:38:36;3.38;;;1.42;;
68843;SDS011;55850;51.244;6.824;2022-09-03T10:43:51;2.78;;;1.40;;
68843;SDS011;55850;51.244;6.824;2022-09-03T10:54:49;3.05;;;1.70;;
68843;SDS011;55850;51.244;6.824;2022-09-03T11:00:09;2.05;;;1.75;;
68843;SDS011;55850;51.244;6.824;2022-09-03T11:05:26;1.90;;;1.70;;
68843;SDS011;55850;51.244;6.824;2022-09-03T11:10:39;2.30;;;1.83;;
68843;SDS011;55850;51.244;6.824;2022-09-03T11:15:48;2.63;;;1.85;;
68843;SDS011;55850;51.244;6.824;2022-09-03T11:21:01;3.40;;;2.07;;
68843;SDS011;55850;51.244;6.824;2022-09-03T11:26:14;5.77;;;2.33;;
68843;SDS011;55850;51.244;6.824;2022-09-03T11:31:24;2.75;;;1.80;;
68843;SDS011;55850;51.244;6.824;2022-09-03T11:36:39;2.20;;;1.83;;
68843;SDS011;55850;51.244;6.824;2022-09-03T11:41:56;2.90;;;1.80;;
68843;SDS011;55850;51.244;6.824;2022-09-03T11:47:12;3.70;;;1.80;;
68843;SDS011;55850;51.244;6.824;2022-09-03T11:52:29;3.50;;;1.90;;
68843;SDS011;55850;51.244;6.824;2022-09-03T11:57:41;3.03;;;2.10;;
68843;SDS011;55850;51.244;6.824;2022-09-03T12:02:48;2.88;;;1.70;;
68843;SDS011;55850;51.244;6.824;2022-09-03T12:08:15;2.10;;;1.90;;
68843;SDS011;55850;51.244;6.824;2022-09-03T12:13:43;3.60;;;2.10;;
68843;SDS011;55850;51.244;6.824;2022-09-03T12:18:59;2.40;;;1.57;;
68843;SDS011;55850;51.244;6.824;2022-09-03T12:24:21;2.88;;;1.90;;
68843;SDS011;55850;51.244;6.824;2022-09-03T12:29:38;2.45;;;1.90;;
68843;SDS011;55850;51.244;6.824;2022-09-03T12:35:09;2.13;;;1.70;;
68843;SDS011;55850;51.244;6.824;2022-09-03T12:40:41;2.72;;;2.05;;
68843;SDS011;55850;51.244;6.824;2022-09-03T12:46:12;5.95;;;1.98;;
68843;SDS011;55850;51.244;6.824;2022-09-03T12:51:29;2.30;;;2.10;;
68843;SDS011;55850;51.244;6.824;2022-09-03T12:56:59;2.63;;;2.17;;
68843;SDS011;55850;51.244;6.824;2022-09-03T13:02:11;2.85;;;2.10;;
68843;SDS011;55850;51.244;6.824;2022-09-03T13:07:22;3.43;;;2.53;;
68843;SDS011;55850;51.244;6.824;2022-09-03T13:12:42;3.33;;;2.23;;
68843;SDS011;55850;51.244;6.824;2022-09-03T13:18:06;2.60;;;2.10;;
68843;SDS011;55850;51.244;6.824;2022-09-03T13:23:40;3.30;;;2.30;;
68843;SDS011;55850;51.244;6.824;2022-09-03T13:29:04;3.00;;;2.57;;
68843;SDS011;55850;51.244;6.824;2022-09-03T13:34:24;2.63;;;2.00;;
68843;SDS011;55850;51.244;6.824;2022-09-03T13:39:38;5.32;;;2.83;;
68843;SDS011;55850;51.244;6.824;2022-09-03T13:44:51;4.20;;;2.40;;
68843;SDS011;55850;51.244;6.824;2022-09-03T13:50:03;3.28;;;2.58;;
68843;SDS011;55850;51.244;6.824;2022-09-03T13:55:30;2.67;;;1.95;;
68843;SDS011;55850;51.244;6.824;2022-09-03T14:00:44;2.97;;;2.43;;
68843;SDS011;55850;51.244;6.824;2022-09-03T14:05:59;4.40;;;2.20;;
68843;SDS011;55850;51.244;6.824;2022-09-03T14:11:12;2.78;;;2.30;;
68843;SDS011;55850;51.244;6.824;2022-09-03T14:16:33;4.00;;;2.53;;
68843;SDS011;55850;51.244;6.824;2022-09-03T14:21:46;3.07;;;2.40;;
68843;SDS011;55850;51.244;6.824;2022-09-03T14:26:59;3.42;;;2.38;;
68843;SDS011;55850;51.244;6.824;2022-09-03T14:32:16;3.00;;;1.83;;
68843;SDS011;55850;51.244;6.824;2022-09-03T14:43:18;2.17;;;1.98;;
68843;SDS011;55850;51.244;6.824;2022-09-03T14:48:47;2.22;;;2.00;;
68843;SDS011;55850;51.244;6.824;2022-09-03T14:54:26;2.30;;;2.10;;
68843;SDS011;55850;51.244;6.824;2022-09-03T14:59:43;2.40;;;2.03;;
68843;SDS011;55850;51.244;6.824;2022-09-03T15:05:11;4.35;;;2.58;;
68843;SDS011;55850;51.244;6.824;2022-09-03T15:10:26;2.33;;;1.90;;
68843;SDS011;55850;51.244;6.824;2022-09-03T15:15:47;3.40;;;2.10;;
68843;SDS011;55850;51.244;6.824;2022-09-03T15:21:11;3.45;;;1.85;;
68843;SDS011;55850;51.244;6.824;2022-09-03T15:26:37;3.53;;;2.13;;
68843;SDS011;55850;51.244;6.824;2022-09-03T15:31:52;2.80;;;2.50;;
68843;SDS011;55850;51.244;6.824;2022-09-03T15:37:10;3.72;;;2.10;;
68843;SDS011;55850;51.244;6.824;2022-09-03T15:42:21;2.22;;;2.03;;
68843;SDS011;55850;51.244;6.824;2022-09-03T15:47:35;3.23;;;2.57;;
68843;SDS011;55850;51.244;6.824;2022-09-03T15:52:57;4.47;;;2.70;;
68843;SDS011;55850;51.244;6.824;2022-09-03T15:58:21;2.83;;;2.00;;
68843;SDS011;55850;51.244;6.824;2022-09-03T16:03:38;3.00;;;2.20;;
68843;SDS011;55850;51.244;6.824;2022-09-03T16:08:51;2.57;;;2.37;;
68843;SDS011;55850;51.244;6.824;2022-09-03T16:14:02;6.18;;;2.35;;
68843;SDS011;55850;51.244;6.824;2022-09-03T16:19:15;4.80;;;2.17;;
68843;SDS011;55850;51.244;6.824;2022-09-03T16:24:30;3.97;;;2.30;;
68843;SDS011;55850;51.244;6.824;2022-09-03T16:29:44;6.25;;;2.38;;
68843;SDS011;55850;51.244;6.824;2022-09-03T16:35:03;3.10;;;2.30;;
68843;SDS011;55850;51.244;6.824;2022-09-03T16:40:24;2.33;;;2.13;;
68843;SDS011;55850;51.244;6.824;2022-09-03T16:45:39;4.90;;;2.63;;
68843;SDS011;55850;51.244;6.824;2022-09-03T16:50:58;3.85;;;2.20;;
68843;SDS011;55850;51.244;6.824;2022-09-03T16:56:20;2.72;;;2.20;;
68843;SDS011;55850;51.244;6.824;2022-09-03T17:01:41;3.30;;;2.20;;
68843;SDS011;55850;51.244;6.824;2022-09-03T17:07:02;3.15;;;2.85;;
68843;SDS011;55850;51.244;6.824;2022-09-03T17:12:22;3.85;;;2.85;;
68843;SDS011;55850;51.244;6.824;2022-09-03T17:17:34;3.70;;;3.20;;
68843;SDS011;55850;51.244;6.824;2022-09-03T17:22:51;3.67;;;2.50;;
68843;SDS011;55850;51.244;6.824;2022-09-03T17:28:12;4.75;;;2.40;;
68843;SDS011;55850;51.244;6.824;2022-09-03T17:33:34;8.43;;;2.23;;
68843;SDS011;55850;51.244;6.824;2022-09-03T17:44:49;3.47;;;2.28;;
68843;SDS011;55850;51.244;6.824;2022-09-03T17:50:06;41.95;;;17.00;;
68843;SDS011;55850;51.244;6.824;2022-09-03T17:55:23;43.13;;;17.00;;
68843;SDS011;55850;51.244;6.824;2022-09-03T18:00:40;7.10;;;4.18;;
68843;SDS011;55850;51.244;6.824;2022-09-03T18:05:56;5.03;;;2.80;;
68843;SDS011;55850;51.244;6.824;2022-09-03T18:11:06;9.37;;;3.00;;
68843;SDS011;55850;51.244;6.824;2022-09-03T18:16:20;4.45;;;2.80;;
68843;SDS011;55850;51.244;6.824;2022-09-03T18:21:32;3.25;;;1.90;;
68843;SDS011;55850;51.244;6.824;2022-09-03T18:26:54;4.63;;;2.20;;
68843;SDS011;55850;51.244;6.824;2022-09-03T18:32:17;2.60;;;1.83;;
68843;SDS011;55850;51.244;6.824;2022-09-03T18:37:35;3.63;;;2.10;;
68843;SDS011;55850;51.244;6.824;2022-09-03T18:42:57;4.05;;;1.98;;
68843;SDS011;55850;51.244;6.824;2022-09-03T18:48:30;3.57;;;1.90;;
68843;SDS011;55850;51.244;6.824;2022-09-03T18:53:57;2.55;;;1.50;;
68843;SDS011;55850;51.244;6.824;2022-09-03T18:59:36;3.80;;;2.00;;
68843;SDS011;55850;51.244;6.824;2022-09-03T19:05:09;3.83;;;1.97;;
68843;SDS011;55850;51.244;6.824;2022-09-03T19:10:37;2.60;;;1.73;;
68843;SDS011;55850;51.244;6.824;2022-09-03T19:16:05;3.25;;;2.17;;
68843;SDS011;55850;51.244;6.824;2022-09-03T19:21:30;2.90;;;2.00;;
68843;SDS011;55850;51.244;6.824;2022-09-03T19:26:57;6.97;;;1.93;;
68843;SDS011;55850;51.244;6.824;2022-09-03T19:32:41;3.10;;;1.90;;
68843;SDS011;55850;51.244;6.824;2022-09-03T19:38:21;4.57;;;2.05;;
68843;SDS011;55850;51.244;6.824;2022-09-03T19:43:48;3.93;;;2.70;;
68843;SDS011;55850;51.244;6.824;2022-09-03T19:49:17;5.38;;;2.10;;
68843;SDS011;55850;51.244;6.824;2022-09-03T19:54:42;5.90;;;1.98;;
68843;SDS011;55850;51.244;6.824;2022-09-03T20:00:02;4.17;;;2.00;;
68843;SDS011;55850;51.244;6.824;2022-09-03T20:05:34;2.53;;;1.70;;
68843;SDS011;55850;51.244;6.824;2022-09-03T20:10:57;3.42;;;1.55;;
68843;SDS011;55850;51.244;6.824;2022-09-03T20:16:05;1.87;;;1.50;;
68843;SDS011;55850;51.244;6.824;2022-09-03T20:21:17;3.23;;;2.00;;
68843;SDS011;55850;51.244;6.824;2022-09-03T20:26:37;4.30;;;1.80;;
68843;SDS011;55850;51.244;6.824;2022-09-03T20:31:52;2.25;;;1.58;;
68843;SDS011;55850;51.244;6.824;2022-09-03T20:37:09;3.00;;;1.40;;
68843;SDS011;55850;51.244;6.824;2022-09-03T20:42:26;3.17;;;1.75;;
68843;SDS011;55850;51.244;6.824;2022-09-03T20:47:45;1.60;;;1.45;;
68843;SDS011;55850;51.244;6.824;2022-09-03T20:53:05;3.00;;;1.67;;
68843;SDS011;55850;51.244;6.824;2022-09-03T20:58:29;3.42;;;1.60;;
68843;SDS011;55850;51.244;6.824;2022-09-03T21:03:43;2.35;;;1.55;;
68843;SDS011;55850;51.244;6.824;2022-09-03T21:08:58;1.60;;;1.33;;
68843;SDS011;55850;51.244;6.824;2022-09-03T21:14:16;2.40;;;1.63;;
68843;SDS011;55850;51.244;6.824;2022-09-03T21:19:39;2.78;;;1.85;;
68843;SDS011;55850;51.244;6.824;2022-09-03T21:24:58;2.15;;;1.55;;
68843;SDS011;55850;51.244;6.824;2022-09-03T21:30:12;2.00;;;1.63;;
68843;SDS011;55850;51.244;6.824;2022-09-03T21:35:22;2.88;;;1.80;;
68843;SDS011;55850;51.244;6.824;2022-09-03T21:40:35;2.70;;;1.60;;
68843;SDS011;55850;51.244;6.824;2022-09-03T21:45:52;3.70;;;1.87;;
68843;SDS011;55850;51.244;6.824;2022-09-03T21:51:05;1.45;;;1.33;;
68843;SDS011;55850;51.244;6.824;2022-09-03T22:01:54;3.50;;;1.70;;
68843;SDS011;55850;51.244;6.824;2022-09-03T22:07:10;2.33;;;1.60;;
68843;SDS011;55850;51.244;6.824;2022-09-03T22:12:22;2.20;;;1.65;;
68843;SDS011;55850;51.244;6.824;2022-09-03T22:17:37;2.20;;;1.70;;
68843;SDS011;55850;51.244;6.824;2022-09-03T22:22:58;3.13;;;1.70;;
68843;SDS011;55850;51.244;6.824;2022-09-03T22:28:10;2.25;;;1.75;;
68843;SDS011;55850;51.244;6.824;2022-09-03T22:33:25;2.58;;;2.00;;
68843;SDS011;55850;51.244;6.824;2022-09-03T22:38:40;2.40;;;1.70;;
68843;SDS011;55850;51.244;6.824;2022-09-03T22:44:00;2.45;;;1.70;;
68843;SDS011;55850;51.244;6.824;2022-09-03T22:49:17;2.83;;;2.10;;
68843;SDS011;55850;51.244;6.824;2022-09-03T22:54:38;2.50;;;2.20;;
68843;SDS011;55850;51.244;6.824;2022-09-03T22:59:53;3.23;;;1.93;;
68843;SDS011;55850;51.244;6.824;2022-09-03T23:05:06;2.80;;;2.05;;
68843;SDS011;55850;51.244;6.824;2022-09-03T23:10:16;2.38;;;1.85;;
68843;SDS011;55850;51.244;6.824;2022-09-03T23:15:27;3.33;;;2.00;;
68843;SDS011;55850;51.244;6.824;2022-09-03T23:20:37;2.63;;;1.98;;
68843;SDS011;55850;51.244;6.824;2022-09-03T23:25:46;1.88;;;1.67;;
68843;SDS011;55850;51.244;6.824;2022-09-03T23:30:57;2.10;;;1.53;;
68843;SDS011;55850;51.244;6.824;2022-09-03T23:36:19;2.67;;;1.88;;
68843;SDS011;55850;51.244;6.824;2022-09-03T23:41:55;4.13;;;2.17;;
68843;SDS011;55850;51.244;6.824;2022-09-03T23:47:13;5.10;;;2.23;;
68843;SDS011;55850;51.244;6.824;2022-09-03T23:58:04;2.15;;;1.83;;
